Time;durP1;ratioP1;P1;durP2;ratioP2;P2;SDS_P1;SDS_P2;PMS_P1;PMS_P2;Temp;Humidity;BMP_temperature;BMP_pressure;BME280_temperature;BME280_humidity;BME280_pressure;Samples;Min_cycle;Max_cycle;Signal;HPM_P1;HPM_P2
2023/10/13 00:00:40;;;;;;;11.95;11.35;;;;;;;;;;4147674;28;20095;-65
2023/10/13 00:02:43;;;;;;;9.95;9.45;;;;;;;;;;4148031;28;20042;-65
2023/10/13 00:04:46;;;;;;;;;;;;;;;;;;4147594;28;20517;-65
2023/10/13 00:06:47;;;;;;;8.63;8.30;;;;;;;;;;4148095;28;19921;-65
2023/10/13 00:08:50;;;;;;;8.00;7.70;;;;;;;;;;4147947;28;20088;-65
2023/10/13 00:10:51;;;;;;;10.27;9.85;;;;;;;;;;4147840;28;20100;-64
2023/10/13 00:12:53;;;;;;;10.30;9.67;;;;;;;;;;4147823;28;20123;-64
2023/10/13 00:14:55;;;;;;;10.90;10.23;;;;;;;;;;4147671;28;20362;-65
2023/10/13 00:17:07;;;;;;;10.10;9.77;;;;;;;;;;4148026;28;20041;-64
2023/10/13 00:19:13;;;;;;;9.85;9.45;;;;;;;;;;4147682;28;20046;-64
2023/10/13 00:21:35;;;;;;;10.18;9.77;;;;;;;;;;4147701;28;20632;-64
2023/10/13 00:23:37;;;;;;;8.80;8.52;;;;;;;;;;4147671;28;20050;-64
2023/10/13 00:25:49;;;;;;;9.50;9.05;;;;;;;;;;4147785;28;20038;-64
2023/10/13 00:27:52;;;;;;;10.65;10.05;;;;;;;;;;4147703;28;20041;-64
2023/10/13 00:30:15;;;;;;;9.48;8.90;;;;;;;;;;4147689;28;20046;-65
2023/10/13 00:32:16;;;;;;;10.77;10.18;;;;;;;;;;4156652;28;20053;-64
2023/10/13 00:36:23;;;;;;;9.13;8.40;;;;;;;;;;4147584;28;20038;-65
2023/10/13 00:38:24;;;;;;;9.32;8.90;;;;;;;;;;4147484;28;20034;-65
2023/10/13 00:42:50;;;;;;;10.20;9.90;;;;;;;;;;4147545;28;20696;-65
2023/10/13 00:44:54;;;;;;;9.60;9.27;;;;;;;;;;4147538;28;20459;-65
2023/10/13 00:46:56;;;;;;;9.93;9.50;;;;;;;;;;4147441;28;20056;-65
2023/10/13 00:48:59;;;;;;;11.35;10.45;;;;;;;;;;4147696;28;20056;-64
2023/10/13 00:51:06;;;;;;;9.60;9.05;;;;;;;;;;4147479;28;20038;-64
2023/10/13 00:53:09;;;;;;;8.63;8.18;;;;;;;;;;4147689;28;20049;-64
2023/10/13 00:55:11;;;;;;;10.15;9.82;;;;;;;;;;4147330;28;20414;-63
2023/10/13 00:57:29;;;;;;;8.90;8.48;;;;;;;;;;4147541;28;20048;-65
2023/10/13 00:59:35;;;;;;;10.85;10.55;;;;;;;;;;4147419;28;20464;-65
2023/10/13 01:01:40;;;;;;;11.45;10.85;;;;;;;;;;4147539;28;20042;-65
2023/10/13 01:03:44;;;;;;;8.95;8.40;;;;;;;;;;4147293;28;20058;-65
2023/10/13 01:05:46;;;;;;;10.85;10.35;;;;;;;;;;4147305;28;20046;-65
2023/10/13 01:07:54;;;;;;;10.77;10.23;;;;;;;;;;4147291;28;20490;-65
2023/10/13 01:09:56;;;;;;;10.45;9.80;;;;;;;;;;4147325;28;20049;-65
2023/10/13 01:12:00;;;;;;;11.38;11.07;;;;;;;;;;4147319;28;20042;-65
2023/10/13 01:14:04;;;;;;;9.65;8.85;;;;;;;;;;4147351;28;20064;-64
2023/10/13 01:16:07;;;;;;;9.93;9.20;;;;;;;;;;4148670;28;20437;-65
2023/10/13 01:18:13;;;;;;;12.52;12.02;;;;;;;;;;4150627;28;20044;-65
2023/10/13 01:20:24;;;;;;;13.70;12.88;;;;;;;;;;4150362;28;20038;-64
2023/10/13 01:22:28;;;;;;;12.30;11.80;;;;;;;;;;4150636;28;20038;-64
2023/10/13 01:24:36;;;;;;;13.32;12.82;;;;;;;;;;4150642;28;20053;-64
2023/10/13 01:26:38;;;;;;;14.35;13.75;;;;;;;;;;4150221;28;20042;-64
2023/10/13 01:28:46;;;;;;;15.15;14.27;;;;;;;;;;4153194;28;20040;-65
2023/10/13 01:30:51;;;;;;;14.70;14.00;;;;;;;;;;4138153;28;20039;-64
2023/10/13 01:33:00;;;;;;;13.82;12.90;;;;;;;;;;4166490;28;20124;-65
2023/10/13 01:35:06;;;;;;;14.48;13.70;;;;;;;;;;4166363;28;20041;-65
2023/10/13 01:37:10;;;;;;;13.23;12.75;;;;;;;;;;4166563;28;20041;-65
2023/10/13 01:39:16;;;;;;;13.75;13.23;;;;;;;;;;4166341;28;20050;-65
2023/10/13 01:41:18;;;;;;;12.95;12.48;;;;;;;;;;4166443;28;20099;-64
2023/10/13 01:43:20;;;;;;;13.13;12.55;;;;;;;;;;4153946;28;20042;-65
2023/10/13 01:45:28;;;;;;;13.63;12.57;;;;;;;;;;4144691;28;20065;-66
2023/10/13 01:47:32;;;;;;;13.77;13.18;;;;;;;;;;4145962;28;20715;-65
2023/10/13 01:49:46;;;;;;;11.88;11.15;;;;;;;;;;4149932;28;20046;-65
2023/10/13 01:51:49;;;;;;;12.88;12.48;;;;;;;;;;4149714;28;20121;-65
2023/10/13 01:53:56;;;;;;;14.20;13.37;;;;;;;;;;4150077;28;20486;-65
2023/10/13 01:55:58;;;;;;;12.63;11.93;;;;;;;;;;4147208;28;20044;-65
2023/10/13 01:58:00;;;;;;;13.05;12.68;;;;;;;;;;4133611;28;20113;-65
2023/10/13 02:00:18;;;;;;;12.80;12.30;;;;;;;;;;4133572;28;20038;-65
2023/10/13 02:02:28;;;;;;;11.82;11.43;;;;;;;;;;4133487;28;20038;-64
2023/10/13 02:04:33;;;;;;;12.68;12.07;;;;;;;;;;4133461;28;20129;-65
2023/10/13 02:06:38;;;;;;;13.75;13.25;;;;;;;;;;4133553;28;20589;-64
2023/10/13 02:08:44;;;;;;;14.50;13.77;;;;;;;;;;4133305;28;20058;-65
2023/10/13 02:10:45;;;;;;;13.45;12.85;;;;;;;;;;4133543;28;20055;-65
2023/10/13 02:12:47;;;;;;;13.75;13.15;;;;;;;;;;4133377;28;20042;-65
2023/10/13 02:14:49;;;;;;;14.73;14.18;;;;;;;;;;4133419;28;20042;-65
2023/10/13 02:16:50;;;;;;;13.50;12.93;;;;;;;;;;4133362;28;20129;-64
2023/10/13 02:18:52;;;;;;;15.18;14.48;;;;;;;;;;4133357;28;20038;-65
2023/10/13 02:20:55;;;;;;;15.60;14.83;;;;;;;;;;4133267;28;20157;-65
2023/10/13 02:22:56;;;;;;;;;;;;;;;;;;4133627;28;20289;-65
2023/10/13 02:25:01;;;;;;;13.90;13.20;;;;;;;;;;4139720;28;19925;-65
2023/10/13 02:27:04;;;;;;;15.60;14.43;;;;;;;;;;4148763;28;20482;-65
2023/10/13 02:29:24;;;;;;;14.80;14.20;;;;;;;;;;4149241;28;20450;-65
2023/10/13 02:31:29;;;;;;;13.50;12.80;;;;;;;;;;4153498;28;20469;-65
2023/10/13 02:33:31;;;;;;;14.63;13.70;;;;;;;;;;4165859;28;20049;-65
2023/10/13 02:35:35;;;;;;;13.27;12.52;;;;;;;;;;4165493;28;20120;-65
2023/10/13 02:37:36;;;;;;;13.57;13.18;;;;;;;;;;4165593;28;20402;-65
2023/10/13 02:39:41;;;;;;;14.70;14.20;;;;;;;;;;4165249;28;20551;-65
2023/10/13 02:41:47;;;;;;;14.98;14.48;;;;;;;;;;4165505;28;20060;-64
2023/10/13 02:43:49;;;;;;;14.70;14.05;;;;;;;;;;4165445;28;20045;-65
2023/10/13 02:46:00;;;;;;;14.63;13.97;;;;;;;;;;4161224;28;20077;-65
2023/10/13 02:48:17;;;;;;;13.55;12.95;;;;;;;;;;4148975;28;20410;-65
2023/10/13 02:50:24;;;;;;;14.82;13.82;;;;;;;;;;4149021;28;20053;-64
2023/10/13 02:52:26;;;;;;;13.80;13.30;;;;;;;;;;4149047;28;20052;-65
2023/10/13 02:54:31;;;;;;;15.52;14.68;;;;;;;;;;4148982;28;20038;-65
2023/10/13 02:56:33;;;;;;;14.95;13.80;;;;;;;;;;4148996;28;20133;-65
2023/10/13 02:58:45;;;;;;;16.03;15.13;;;;;;;;;;4148846;28;20111;-65
2023/10/13 03:00:47;;;;;;;14.73;14.13;;;;;;;;;;4148661;28;20034;-65
2023/10/13 03:02:58;;;;;;;15.77;14.80;;;;;;;;;;4148816;28;20045;-65
2023/10/13 03:05:02;;;;;;;15.32;14.50;;;;;;;;;;4148971;28;20045;-65
2023/10/13 03:07:04;;;;;;;14.40;13.80;;;;;;;;;;4148734;28;20115;-64
2023/10/13 03:09:18;;;;;;;14.13;13.50;;;;;;;;;;4148675;28;20510;-65
2023/10/13 03:11:21;;;;;;;14.20;13.25;;;;;;;;;;4148673;28;20049;-65
2023/10/13 03:13:22;;;;;;;;;;;;;;;;;;4149008;28;20486;-65
2023/10/13 03:15:35;;;;;;;16.35;15.63;;;;;;;;;;4148752;28;20337;-65
2023/10/13 03:17:40;;;;;;;15.10;14.40;;;;;;;;;;4148650;28;20061;-65
2023/10/13 03:19:46;;;;;;;14.10;13.57;;;;;;;;;;4148611;28;20041;-65
2023/10/13 03:22:04;;;;;;;14.38;13.98;;;;;;;;;;4151476;28;20034;-65
2023/10/13 03:24:07;;;;;;;14.82;13.90;;;;;;;;;;4148540;28;20050;-65
2023/10/13 03:26:09;;;;;;;12.77;12.10;;;;;;;;;;4148594;28;20038;-65
2023/10/13 03:28:17;;;;;;;13.20;12.68;;;;;;;;;;4148387;28;20103;-65
2023/10/13 03:30:20;;;;;;;13.50;12.90;;;;;;;;;;4148298;28;20054;-65
2023/10/13 03:32:26;;;;;;;13.45;13.13;;;;;;;;;;4163192;28;20045;-65
2023/10/13 03:34:29;;;;;;;13.07;12.80;;;;;;;;;;4164976;28;20053;-65
2023/10/13 03:38:54;;;;;;;12.45;11.88;;;;;;;;;;4164618;28;20052;-65
2023/10/13 03:40:58;;;;;;;13.93;13.15;;;;;;;;;;4164497;28;20041;-64
2023/10/13 03:45:10;;;;;;;15.02;14.45;;;;;;;;;;4155640;28;20049;-65
2023/10/13 03:47:18;;;;;;;13.90;13.30;;;;;;;;;;4138026;28;20042;-65
2023/10/13 03:49:25;;;;;;;14.15;13.18;;;;;;;;;;4131887;28;20049;-64
2023/10/13 03:51:31;;;;;;;13.88;13.18;;;;;;;;;;4131879;28;20046;-65
2023/10/13 03:53:34;;;;;;;14.88;14.30;;;;;;;;;;4131030;28;20046;-65
2023/10/13 03:55:36;;;;;;;15.20;14.50;;;;;;;;;;4131717;28;20070;-65
2023/10/13 03:57:39;;;;;;;16.33;15.52;;;;;;;;;;4131870;28;20122;-65
2023/10/13 03:59:46;;;;;;;15.02;14.35;;;;;;;;;;4131742;28;20045;-65
2023/10/13 04:04:11;;;;;;;16.25;15.43;;;;;;;;;;4131673;28;20053;-65
2023/10/13 04:06:18;;;;;;;14.13;13.50;;;;;;;;;;4131739;28;20073;-65
2023/10/13 04:15:23;;;;;;;16.00;15.27;;;;;;;;;;4147052;28;20042;-66
2023/10/13 04:17:28;;;;;;;16.20;15.70;;;;;;;;;;4147514;28;20034;-65
2023/10/13 04:19:36;;;;;;;14.60;14.18;;;;;;;;;;4147800;28;20609;-65
2023/10/13 04:24:09;;;;;;;19.60;18.55;;;;;;;;;;4145946;28;20042;-66
2023/10/13 04:26:08;;;;;;;17.77;16.60;;;;;;;;;;4143943;28;20506;-65
2023/10/13 04:30:26;;;;;;;15.80;15.35;;;;;;;;;;4145028;28;20054;-64
2023/10/13 04:32:28;;;;;;;19.20;18.50;;;;;;;;;;4146773;28;20045;-65
2023/10/13 04:34:38;;;;;;;16.48;15.80;;;;;;;;;;4147648;28;20073;-66
2023/10/13 04:36:45;;;;;;;17.77;17.02;;;;;;;;;;4147485;28;20061;-65
2023/10/13 04:38:57;;;;;;;18.17;17.52;;;;;;;;;;4147477;28;20096;-65
2023/10/13 04:41:01;;;;;;;19.27;18.27;;;;;;;;;;4147473;28;20030;-65
2023/10/13 04:43:32;;;;;;;19.40;18.10;;;;;;;;;;4147712;28;20045;-65
2023/10/13 04:45:38;;;;;;;17.67;16.95;;;;;;;;;;4147250;28;20081;-65
2023/10/13 04:47:41;;;;;;;17.45;16.50;;;;;;;;;;4133601;28;20525;-65
2023/10/13 04:51:58;;;;;;;20.08;19.08;;;;;;;;;;4150129;28;20100;-65
2023/10/13 04:54:03;;;;;;;20.83;19.30;;;;;;;;;;4150892;28;20108;-66
2023/10/13 04:56:59;;;;;;;19.02;18.02;;;;;;;;;;4150811;28;20469;-65
2023/10/13 05:00:56;;;;;;;19.05;17.70;;;;;;;;;;4150453;28;20042;-65
2023/10/13 05:45:24;;;;;;;;;;;;;;;;;;4133324;28;20469;-67
2023/10/13 05:49:50;;;;;;;19.13;18.48;;;;;;;;;;4150068;28;20060;-67
2023/10/13 06:29:01;;;;;;;27.73;24.38;;;;;;;;;;4133310;28;20380;-67
2023/10/13 06:31:06;;;;;;;27.60;25.30;;;;;;;;;;4141188;28;20049;-68
2023/10/13 06:33:11;;;;;;;28.05;25.55;;;;;;;;;;4163020;28;20656;-67
2023/10/13 06:35:19;;;;;;;24.77;23.17;;;;;;;;;;4148180;28;20149;-67
2023/10/13 06:37:24;;;;;;;24.88;23.55;;;;;;;;;;4149544;28;20066;-67
2023/10/13 06:39:35;;;;;;;23.77;22.13;;;;;;;;;;4147882;28;20041;-67
2023/10/13 06:41:40;;;;;;;20.55;19.60;;;;;;;;;;4149132;28;20049;-67
2023/10/13 06:43:43;;;;;;;21.02;20.02;;;;;;;;;;4149138;28;20042;-67
2023/10/13 06:46:07;;;;;;;20.10;19.08;;;;;;;;;;4149210;28;20040;-67
2023/10/13 06:48:11;;;;;;;21.67;20.27;;;;;;;;;;4132823;28;20046;-67
2023/10/13 06:50:15;;;;;;;19.45;17.63;;;;;;;;;;4132909;28;20046;-67
2023/10/13 06:52:17;;;;;;;18.55;16.85;;;;;;;;;;4132882;28;20074;-67
2023/10/13 06:54:20;;;;;;;19.75;18.67;;;;;;;;;;4132805;28;20515;-67
2023/10/13 06:56:27;;;;;;;19.17;17.38;;;;;;;;;;4131580;28;20112;-67
2023/10/13 06:58:29;;;;;;;19.10;17.67;;;;;;;;;;4132696;28;20105;-67
2023/10/13 07:00:38;;;;;;;19.60;18.73;;;;;;;;;;4132547;28;20088;-67
2023/10/13 07:02:39;;;;;;;21.65;20.38;;;;;;;;;;4132754;28;20038;-67
2023/10/13 07:04:41;;;;;;;21.42;19.40;;;;;;;;;;4132539;28;20046;-67
2023/10/13 07:06:50;;;;;;;21.10;20.10;;;;;;;;;;4146391;28;20038;-67
2023/10/13 07:08:52;;;;;;;18.27;16.88;;;;;;;;;;4149018;28;20042;-67
2023/10/13 07:11:05;;;;;;;17.80;16.55;;;;;;;;;;4148675;28;20053;-67
2023/10/13 07:13:07;;;;;;;18.45;17.33;;;;;;;;;;4148419;28;20056;-66
2023/10/13 07:17:25;;;;;;;17.45;16.55;;;;;;;;;;4148593;28;20092;-67
2023/10/13 07:19:28;;;;;;;16.48;15.68;;;;;;;;;;4131232;28;20042;-67
2023/10/13 07:21:33;;;;;;;17.38;16.67;;;;;;;;;;4148560;28;20096;-67
2023/10/13 07:23:36;;;;;;;18.92;17.40;;;;;;;;;;4148780;28;20104;-66
2023/10/13 07:25:40;;;;;;;16.67;15.38;;;;;;;;;;4148358;28;20046;-67
2023/10/13 07:27:41;;;;;;;15.63;15.02;;;;;;;;;;4148466;28;20046;-66
2023/10/13 07:29:43;;;;;;;14.45;13.95;;;;;;;;;;4148332;28;20053;-67
2023/10/13 07:31:45;;;;;;;15.57;14.90;;;;;;;;;;4158018;28;20045;-66
2023/10/13 07:33:47;;;;;;;15.18;14.50;;;;;;;;;;4164691;28;20144;-66
2023/10/13 07:35:59;;;;;;;13.90;13.27;;;;;;;;;;4164708;28;20045;-67
2023/10/13 07:38:01;;;;;;;13.48;12.75;;;;;;;;;;4164913;28;20049;-67
2023/10/13 07:40:17;;;;;;;10.30;9.98;;;;;;;;;;4164306;28;20052;-67
2023/10/13 07:42:26;;;;;;;12.40;11.65;;;;;;;;;;4164588;28;20567;-67
2023/10/13 07:44:31;;;;;;;9.73;9.32;;;;;;;;;;4164576;28;20053;-66
2023/10/13 07:46:35;;;;;;;8.43;7.90;;;;;;;;;;4159521;28;20046;-66
2023/10/13 07:48:37;;;;;;;7.32;6.82;;;;;;;;;;4148102;28;20508;-67
2023/10/13 07:50:39;;;;;;;8.13;7.55;;;;;;;;;;4148392;28;20038;-67
2023/10/13 07:52:58;;;;;;;7.47;7.28;;;;;;;;;;4148117;28;20052;-66
2023/10/13 07:55:10;;;;;;;7.10;6.90;;;;;;;;;;4148141;28;20046;-67
2023/10/13 07:57:14;;;;;;;9.75;9.10;;;;;;;;;;4147916;28;20077;-67
2023/10/13 07:59:16;;;;;;;8.85;8.45;;;;;;;;;;4148023;28;20045;-66
2023/10/13 08:01:18;;;;;;;8.57;8.13;;;;;;;;;;4147968;28;20045;-67
2023/10/13 08:03:35;;;;;;;8.80;8.55;;;;;;;;;;4150600;28;20057;-66
2023/10/13 08:05:55;;;;;;;8.57;8.27;;;;;;;;;;4147965;28;20045;-67
2023/10/13 08:07:57;;;;;;;7.70;7.53;;;;;;;;;;4147924;28;20414;-66
2023/10/13 08:10:00;;;;;;;7.97;7.57;;;;;;;;;;4147796;28;20096;-66
2023/10/13 08:12:03;;;;;;;7.47;6.88;;;;;;;;;;4148009;28;20048;-66
2023/10/13 08:17:12;;;;;;;8.18;6.72;;;;;;;;;;4148004;28;20454;-67
2023/10/13 08:19:08;;;;;;;6.72;6.15;;;;;;;;;;4145719;28;20104;-67
2023/10/13 08:21:16;;;;;;;6.13;5.80;;;;;;;;;;4147767;28;20402;-67
2023/10/13 08:23:34;;;;;;;7.38;6.13;;;;;;;;;;4147998;28;20092;-66
2023/10/13 08:28:45;;;;;;;6.03;5.68;;;;;;;;;;4131523;28;20383;-66
2023/10/13 08:30:27;;;;;;;5.63;5.38;;;;;;;;;;4133350;28;20047;-67
2023/10/13 08:36:45;;;;;;;6.57;5.85;;;;;;;;;;4163988;28;20069;-67
2023/10/13 08:38:55;;;;;;;6.82;6.22;;;;;;;;;;4163795;28;20042;-67
2023/10/13 08:43:17;;;;;;;6.43;5.70;;;;;;;;;;4164020;28;20462;-67
2023/10/13 08:47:36;;;;;;;5.72;5.22;;;;;;;;;;4151312;28;20449;-66
2023/10/13 08:49:40;;;;;;;5.55;5.05;;;;;;;;;;4147553;28;20052;-67
2023/10/13 08:51:47;;;;;;;5.35;4.55;;;;;;;;;;4147491;28;20851;-66
2023/10/13 08:53:58;;;;;;;5.60;5.30;;;;;;;;;;4147787;28;20066;-66
2023/10/13 08:56:15;;;;;;;5.60;5.28;;;;;;;;;;4147458;28;20045;-67
2023/10/13 08:58:23;;;;;;;5.03;4.72;;;;;;;;;;4150474;28;20041;-66
2023/10/13 09:00:39;;;;;;;4.68;4.38;;;;;;;;;;4162510;28;20140;-66
2023/10/13 09:02:59;;;;;;;5.55;5.10;;;;;;;;;;4147611;28;20053;-66
2023/10/13 09:05:09;;;;;;;5.05;4.65;;;;;;;;;;4147235;28;20502;-66
2023/10/13 09:07:21;;;;;;;7.97;4.82;;;;;;;;;;4147566;28;20042;-67
2023/10/13 09:09:27;;;;;;;6.15;4.65;;;;;;;;;;4147352;28;20402;-67
2023/10/13 09:11:34;;;;;;;4.05;3.70;;;;;;;;;;4147583;28;20042;-66
2023/10/13 09:13:43;;;;;;;4.72;4.53;;;;;;;;;;4147385;28;20501;-66
2023/10/13 09:16:01;;;;;;;3.53;3.28;;;;;;;;;;4131334;28;20045;-66
2023/10/13 09:18:15;;;;;;;4.90;4.30;;;;;;;;;;4131269;28;20070;-67
2023/10/13 09:20:42;;;;;;;4.00;3.63;;;;;;;;;;4131163;28;20077;-66
2023/10/13 09:22:54;;;;;;;4.03;3.65;;;;;;;;;;4140508;28;20042;-67
2023/10/13 09:24:59;;;;;;;7.00;4.30;;;;;;;;;;4147330;28;20049;-66
2023/10/13 09:27:03;;;;;;;4.00;3.80;;;;;;;;;;4147239;28;20402;-66
2023/10/13 09:29:14;;;;;;;3.95;3.65;;;;;;;;;;4147315;28;20038;-67
2023/10/13 09:31:21;;;;;;;3.70;3.60;;;;;;;;;;4152832;28;20038;-66
2023/10/13 09:33:35;;;;;;;4.88;3.78;;;;;;;;;;4163579;28;20046;-66
2023/10/13 09:35:39;;;;;;;3.80;3.60;;;;;;;;;;4163501;28;20057;-66
2023/10/13 09:37:41;;;;;;;4.20;3.50;;;;;;;;;;4165722;28;20396;-67
2023/10/13 09:39:52;;;;;;;4.30;4.00;;;;;;;;;;4166218;28;20041;-66
2023/10/13 09:41:57;;;;;;;2.90;2.80;;;;;;;;;;4166592;28;20406;-67
2023/10/13 09:43:59;;;;;;;4.55;3.70;;;;;;;;;;4165193;28;20405;-66
2023/10/13 09:46:07;;;;;;;4.53;4.22;;;;;;;;;;4165877;28;20532;-66
2023/10/13 09:48:16;;;;;;;3.90;3.80;;;;;;;;;;4150002;28;20042;-66
2023/10/13 09:50:24;;;;;;;4.50;4.07;;;;;;;;;;4150050;28;20042;-66
2023/10/13 09:52:26;;;;;;;4.53;4.18;;;;;;;;;;4150057;28;20121;-66
2023/10/13 09:54:41;;;;;;;4.57;4.32;;;;;;;;;;4152599;28;20049;-66
2023/10/13 09:56:54;;;;;;;13.38;3.30;;;;;;;;;;4133729;28;20510;-67
2023/10/13 09:59:08;;;;;;;3.30;3.10;;;;;;;;;;4133654;28;20035;-66
2023/10/13 10:01:10;;;;;;;3.28;3.17;;;;;;;;;;4133558;28;20049;-67
2023/10/13 10:03:15;;;;;;;;;;;;;;;;;;4133789;28;20380;-66
2023/10/13 10:05:25;;;;;;;3.25;3.15;;;;;;;;;;4133585;28;19976;-66
2023/10/13 10:07:29;;;;;;;5.45;3.22;;;;;;;;;;4133587;28;20689;-67
2023/10/13 10:09:34;;;;;;;2.45;2.35;;;;;;;;;;4133509;28;20045;-66
2023/10/13 10:11:40;;;;;;;3.33;2.33;;;;;;;;;;4146997;28;20411;-66
2023/10/13 10:13:53;;;;;;;4.10;3.20;;;;;;;;;;4149778;28;20041;-67
2023/10/13 10:15:58;;;;;;;3.15;2.92;;;;;;;;;;4149623;28;20406;-67
2023/10/13 10:18:00;;;;;;;2.83;2.65;;;;;;;;;;4147973;28;20046;-66
2023/10/13 10:20:14;;;;;;;2.30;2.20;;;;;;;;;;4133291;28;20077;-66
2023/10/13 10:22:36;;;;;;;2.22;2.03;;;;;;;;;;4133343;28;20042;-66
2023/10/13 10:24:38;;;;;;;4.05;1.65;;;;;;;;;;4133567;28;20050;-67
2023/10/13 10:26:53;;;;;;;2.83;1.98;;;;;;;;;;4133209;28;20085;-67
2023/10/13 10:28:54;;;;;;;2.08;1.98;;;;;;;;;;4133261;28;20518;-66
2023/10/13 10:31:04;;;;;;;4.22;1.60;;;;;;;;;;4142230;28;20116;-67
2023/10/13 10:33:22;;;;;;;1.75;1.35;;;;;;;;;;4165975;28;20047;-67
2023/10/13 10:35:29;;;;;;;1.65;1.40;;;;;;;;;;4165697;28;20041;-67
2023/10/13 10:37:34;;;;;;;1.92;1.77;;;;;;;;;;4165630;28;20394;-67
2023/10/13 10:39:45;;;;;;;2.95;1.80;;;;;;;;;;4165457;28;20442;-67
2023/10/13 10:41:53;;;;;;;2.75;1.50;;;;;;;;;;4165573;28;20041;-68
2023/10/13 10:43:54;;;;;;;2.45;1.48;;;;;;;;;;4158964;28;20030;-66
2023/10/13 10:46:02;;;;;;;1.40;1.40;;;;;;;;;;4140938;28;20551;-66
2023/10/13 10:48:17;;;;;;;1.65;1.55;;;;;;;;;;4141662;28;20041;-66
2023/10/13 10:50:32;;;;;;;1.67;1.58;;;;;;;;;;4148765;28;20076;-66
2023/10/13 10:52:37;;;;;;;1.73;1.63;;;;;;;;;;4148856;28;20042;-67
2023/10/13 10:54:43;;;;;;;2.28;1.50;;;;;;;;;;4147356;28;20048;-66
2023/10/13 10:56:52;;;;;;;2.25;1.27;;;;;;;;;;4142610;28;20125;-67
2023/10/13 10:58:59;;;;;;;2.45;1.30;;;;;;;;;;4138749;28;20029;-67
2023/10/13 11:01:10;;;;;;;1.25;1.10;;;;;;;;;;4139680;28;20053;-66
2023/10/13 11:03:12;;;;;;;1.63;1.40;;;;;;;;;;4148726;28;20053;-67
2023/10/13 11:05:19;;;;;;;;;;;;;;;;;;4144289;28;20033;-66
2023/10/13 11:07:24;;;;;;;1.40;1.30;;;;;;;;;;4143248;28;19921;-66
2023/10/13 11:11:35;;;;;;;1.70;1.10;;;;;;;;;;4146394;28;20046;-66
2023/10/13 11:13:54;;;;;;;1.05;1.00;;;;;;;;;;4147046;28;20052;-66
2023/10/13 11:15:57;;;;;;;4.38;1.55;;;;;;;;;;4144879;28;20418;-66
2023/10/13 11:17:58;;;;;;;1.30;1.20;;;;;;;;;;4147933;28;20060;-67
2023/10/13 11:20:15;;;;;;;1.50;1.40;;;;;;;;;;4141806;28;20034;-67
2023/10/13 11:22:32;;;;;;;1.33;1.23;;;;;;;;;;4143926;28;20034;-67
2023/10/13 11:24:39;;;;;;;1.60;1.20;;;;;;;;;;4148524;28;20406;-67
2023/10/13 11:26:50;;;;;;;1.20;1.10;;;;;;;;;;4148426;28;20042;-66
2023/10/13 11:28:52;;;;;;;2.28;1.25;;;;;;;;;;4148542;28;20042;-67
2023/10/13 11:30:58;;;;;;;2.50;1.00;;;;;;;;;;4148109;28;20504;-67
2023/10/13 11:33:05;;;;;;;2.17;1.20;;;;;;;;;;4164705;28;20041;-67
2023/10/13 11:35:20;;;;;;;1.77;1.00;;;;;;;;;;4147202;28;20046;-67
2023/10/13 11:37:43;;;;;;;2.17;1.00;;;;;;;;;;4147063;28;20140;-67
2023/10/13 11:39:45;;;;;;;1.60;1.38;;;;;;;;;;4147044;28;20042;-67
2023/10/13 11:41:53;;;;;;;1.30;1.20;;;;;;;;;;4137682;28;20495;-67
2023/10/13 11:48:37;;;;;;;3.10;1.08;;;;;;;;;;4120021;28;20052;-67
2023/10/13 11:50:39;;;;;;;1.85;1.00;;;;;;;;;;4130107;28;20154;-67
2023/10/13 11:52:40;;;;;;;1.58;1.33;;;;;;;;;;4130071;28;20046;-66
2023/10/13 11:54:42;;;;;;;1.33;1.33;;;;;;;;;;4130018;28;20056;-67
2023/10/13 11:56:44;;;;;;;;;;;;;;;;;;4130405;28;20053;-67
2023/10/13 11:58:46;;;;;;;2.83;1.00;;;;;;;;;;4130041;28;20354;-67
2023/10/13 12:00:53;;;;;;;1.00;1.00;;;;;;;;;;4128938;28;20073;-67
2023/10/13 12:05:17;;;;;;;1.10;0.90;;;;;;;;;;4113935;28;20043;-67
2023/10/13 12:07:19;;;;;;;0.85;0.85;;;;;;;;;;4113612;28;20507;-68
2023/10/13 12:11:33;;;;;;;1.10;1.10;;;;;;;;;;4113697;28;20454;-67
2023/10/13 12:13:34;;;;;;;1.45;1.35;;;;;;;;;;4113952;28;20435;-68
2023/10/13 12:15:48;;;;;;;1.10;1.00;;;;;;;;;;4113715;28;20455;-67
2023/10/13 12:17:50;;;;;;;1.50;0.90;;;;;;;;;;4113727;28;20122;-67
2023/10/13 12:19:52;;;;;;;2.15;0.90;;;;;;;;;;4113701;28;20073;-67
2023/10/13 12:21:55;;;;;;;;;;;;;;;;;;4122755;28;20046;-67
2023/10/13 12:23:57;;;;;;;1.95;0.80;;;;;;;;;;4141471;28;19948;-66
2023/10/13 12:26:00;;;;;;;1.50;0.90;;;;;;;;;;4147865;28;20061;-67
2023/10/13 12:28:21;;;;;;;0.82;0.82;;;;;;;;;;4147768;28;20030;-66
2023/10/13 12:30:36;;;;;;;1.58;1.00;;;;;;;;;;4146518;28;20494;-67
2023/10/13 12:32:44;;;;;;;1.20;0.90;;;;;;;;;;4131483;28;20101;-65
2023/10/13 12:37:24;;;;;;;5.85;0.98;;;;;;;;;;4131434;28;20073;-60
2023/10/13 12:48:59;;;;;;;0.90;0.90;;;;;;;;;;4146359;28;20145;-60
2023/10/13 12:51:19;;;;;;;2.50;0.80;;;;;;;;;;4131318;28;20650;-61
2023/10/13 12:53:21;;;;;;;1.10;1.00;;;;;;;;;;4131352;28;20498;-60
2023/10/13 12:55:24;;;;;;;1.85;1.00;;;;;;;;;;4131314;28;20054;-60
2023/10/13 12:57:27;;;;;;;2.38;0.90;;;;;;;;;;4131310;28;20039;-60
2023/10/13 12:59:29;;;;;;;1.73;0.90;;;;;;;;;;4137792;28;20129;-60
2023/10/13 13:01:34;;;;;;;0.95;0.95;;;;;;;;;;4147378;28;20371;-60
2023/10/13 13:03:35;;;;;;;1.45;1.00;;;;;;;;;;4147417;28;20087;-61
2023/10/13 13:05:44;;;;;;;1.50;1.00;;;;;;;;;;4147340;28;20038;-60
2023/10/13 13:07:52;;;;;;;2.20;0.90;;;;;;;;;;4137826;28;20122;-60
2023/10/13 13:09:58;;;;;;;0.80;0.80;;;;;;;;;;4130998;28;20042;-60
2023/10/13 13:12:00;;;;;;;2.40;0.80;;;;;;;;;;4132634;28;20042;-60
2023/10/13 13:14:02;;;;;;;1.23;0.90;;;;;;;;;;4134312;28;20071;-61
2023/10/13 13:16:04;;;;;;;2.47;0.90;;;;;;;;;;4134481;28;20050;-61
2023/10/13 13:18:12;;;;;;;0.95;0.90;;;;;;;;;;4134355;28;20046;-60
2023/10/13 13:20:53;;;;;;;1.05;0.90;;;;;;;;;;4134397;28;20070;-61
2023/10/13 13:22:41;;;;;;;0.75;0.75;;;;;;;;;;4130912;28;20125;-60
2023/10/13 13:24:44;;;;;;;0.73;0.73;;;;;;;;;;4134070;28;20121;-60
2023/10/13 13:26:48;;;;;;;0.90;0.82;;;;;;;;;;4134369;28;20058;-61
2023/10/13 13:28:52;;;;;;;1.63;1.10;;;;;;;;;;4134225;28;20137;-61
2023/10/13 13:30:54;;;;;;;1.17;0.93;;;;;;;;;;4142538;28;20083;-60
2023/10/13 13:32:58;;;;;;;;;;;;;;;;;;4167151;28;20045;-59
2023/10/13 13:35:07;;;;;;;3.65;0.80;;;;;;;;;;4166629;28;19967;-60
2023/10/13 13:37:12;;;;;;;1.00;1.00;;;;;;;;;;4166564;28;20518;-60
2023/10/13 13:39:18;;;;;;;1.13;1.02;;;;;;;;;;4164052;28;20088;-60
2023/10/13 13:41:20;;;;;;;2.05;0.88;;;;;;;;;;4148528;28;20083;-60
2023/10/13 13:43:31;;;;;;;;;;;;;;;;;;4150583;28;20046;-60
2023/10/13 13:45:34;;;;;;;1.42;0.80;;;;;;;;;;4149982;28;20317;-61
2023/10/13 13:47:36;;;;;;;1.75;0.70;;;;;;;;;;4149881;28;20077;-61
2023/10/13 13:49:40;;;;;;;2.08;1.20;;;;;;;;;;4150295;28;20054;-60
2023/10/13 13:51:42;;;;;;;4.00;1.02;;;;;;;;;;4150026;28;20088;-61
2023/10/13 13:53:48;;;;;;;1.95;0.90;;;;;;;;;;4150018;28;20469;-60
2023/10/13 13:55:51;;;;;;;0.80;0.80;;;;;;;;;;4149801;28;20257;-60
2023/10/13 13:57:55;;;;;;;4.03;0.95;;;;;;;;;;4150047;28;20045;-60
2023/10/13 13:59:57;;;;;;;1.95;0.90;;;;;;;;;;4149982;28;20100;-61
2023/10/13 14:02:00;;;;;;;2.05;1.00;;;;;;;;;;4149935;28;20042;-60
2023/10/13 14:04:03;;;;;;;4.70;0.90;;;;;;;;;;4139679;28;20076;-61
2023/10/13 14:06:06;;;;;;;1.73;0.90;;;;;;;;;;4133546;28;20068;-60
2023/10/13 14:08:11;;;;;;;0.80;0.80;;;;;;;;;;4133959;28;20049;-60
2023/10/13 14:10:31;;;;;;;0.80;0.73;;;;;;;;;;4133487;28;20039;-60
2023/10/13 14:12:41;;;;;;;0.90;0.80;;;;;;;;;;4133459;28;20081;-60
2023/10/13 14:14:55;;;;;;;1.65;0.90;;;;;;;;;;4132197;28;20137;-61
2023/10/13 14:17:09;;;;;;;0.70;0.70;;;;;;;;;;4133663;28;20046;-60
2023/10/13 14:19:11;;;;;;;1.30;1.00;;;;;;;;;;4133342;28;20038;-60
2023/10/13 14:21:19;;;;;;;2.45;1.20;;;;;;;;;;4133301;28;20042;-60
2023/10/13 14:23:22;;;;;;;0.80;0.80;;;;;;;;;;4132566;28;20049;-60
2023/10/13 14:25:28;;;;;;;1.00;1.00;;;;;;;;;;4133112;28;20034;-60
2023/10/13 14:27:30;;;;;;;2.00;0.93;;;;;;;;;;4133260;28;20054;-60
2023/10/13 14:29:32;;;;;;;0.80;0.80;;;;;;;;;;4133214;28;20045;-60
2023/10/13 14:31:36;;;;;;;0.70;0.70;;;;;;;;;;4152513;28;20052;-61
2023/10/13 14:33:39;;;;;;;0.80;0.80;;;;;;;;;;4165683;28;20124;-60
2023/10/13 14:35:40;;;;;;;1.30;0.70;;;;;;;;;;4161103;28;20136;-60
2023/10/13 14:37:42;;;;;;;;;;;;;;;;;;4149118;28;20104;-60
2023/10/13 14:39:44;;;;;;;0.80;0.80;;;;;;;;;;4149018;28;19921;-61
2023/10/13 14:41:47;;;;;;;2.95;0.85;;;;;;;;;;4149395;28;20088;-61
2023/10/13 14:43:49;;;;;;;1.92;0.90;;;;;;;;;;4149092;28;20034;-61
2023/10/13 14:45:51;;;;;;;0.95;0.80;;;;;;;;;;4149052;28;20116;-60
2023/10/13 14:47:53;;;;;;;0.70;0.70;;;;;;;;;;4149183;28;20490;-60
2023/10/13 14:49:55;;;;;;;1.55;0.88;;;;;;;;;;4149168;28;20052;-59
2023/10/13 14:51:59;;;;;;;1.02;0.90;;;;;;;;;;4149288;28;20042;-60
2023/10/13 14:54:01;;;;;;;1.00;0.85;;;;;;;;;;4149047;28;20123;-61
2023/10/13 14:56:05;;;;;;;3.47;0.80;;;;;;;;;;4149230;28;20475;-62
2023/10/13 14:58:12;;;;;;;0.90;0.80;;;;;;;;;;4148983;28;20414;-60
2023/10/13 15:00:14;;;;;;;0.80;0.80;;;;;;;;;;4139346;28;20050;-60